createdAt,value
2022-12-08T00:01:39.914Z,98190.19
2022-12-08T00:04:25.249Z,98183.13
2022-12-08T00:07:29.106Z,98178.78
2022-12-08T00:10:46.632Z,98174.81
2022-12-08T00:13:19.572Z,98181.88
2022-12-08T00:16:05.079Z,98175.56
2022-12-08T00:18:50.386Z,98179.13
2022-12-08T00:21:35.784Z,98177.13
2022-12-08T00:24:22.343Z,98183.47
2022-12-08T00:27:09.453Z,98173.56
2022-12-08T00:29:55.341Z,98176.34
2022-12-08T00:32:40.657Z,98172.78
2022-12-08T00:35:25.991Z,98178.78
2022-12-08T00:38:11.404Z,98176.34
2022-12-08T00:40:56.634Z,98174.47
2022-12-08T00:43:42.343Z,98174.47
2022-12-08T00:46:28.227Z,98168.91
2022-12-08T00:49:14.823Z,98176.00
2022-12-08T00:52:00.516Z,98173.22
2022-12-08T00:54:45.721Z,98171.69
2022-12-08T00:57:31.163Z,98174.88
2022-12-08T01:00:16.719Z,98167.34
2022-12-08T01:03:02.219Z,98169.34
2022-12-08T01:05:47.413Z,98164.22
2022-12-08T01:08:33.176Z,98165.03
2022-12-08T01:11:19.575Z,98170.13
2022-12-08T01:14:05.111Z,98168.56
2022-12-08T01:16:50.484Z,98163.81
2022-12-08T01:19:35.722Z,98158.25
2022-12-08T01:22:20.883Z,98167.00
2022-12-08T01:25:06.749Z,98167.00
2022-12-08T01:27:52.797Z,98163.03
2022-12-08T01:30:39.192Z,98159.03
2022-12-08T01:33:25.052Z,98158.25
2022-12-08T01:36:28.334Z,98151.59
2022-12-08T01:39:18.995Z,98158.69
2022-12-08T01:42:04.793Z,98154.38
2022-12-08T01:44:55.855Z,98148.84
2022-12-08T01:47:46.040Z,98154.38
2022-12-08T01:50:32.462Z,98153.59
2022-12-08T01:53:23.324Z,98140.94
2022-12-08T01:56:14.477Z,98143.28
2022-12-08T01:59:00.343Z,98138.97
2022-12-08T02:01:46.221Z,98134.97
2022-12-08T02:04:31.354Z,98136.22
2022-12-08T02:07:17.883Z,98131.44
2022-12-08T02:10:04.710Z,98130.66
2022-12-08T02:12:56.291Z,98126.66
2022-12-08T02:15:54.573Z,98132.19
2022-12-08T02:18:39.946Z,98119.56
2022-12-08T02:21:44.091Z,98119.56
2022-12-08T02:24:40.672Z,98122.78
2022-12-08T02:27:57.644Z,98122.78
2022-12-08T02:31:16.951Z,98122.78
2022-12-08T02:34:37.841Z,98123.97
2022-12-08T02:37:31.027Z,98116.91
2022-12-08T02:40:35.511Z,98115.78
2022-12-08T02:43:38.319Z,98106.56
2022-12-08T02:46:40.224Z,98104.56
2022-12-08T02:49:31.224Z,98103.81
2022-12-08T02:52:19.680Z,98099.94
2022-12-08T02:55:23.172Z,98094.38
2022-12-08T02:58:36.549Z,98091.63
2022-12-08T03:01:35.108Z,98086.84
2022-12-08T03:04:46.475Z,98085.63
2022-12-08T03:07:47.500Z,98078.19
2022-12-08T03:10:40.549Z,98087.72
2022-12-08T03:13:34.484Z,98087.41
2022-12-08T03:16:30.764Z,98087.06
2022-12-08T03:19:20.130Z,98085.84
2022-12-08T03:22:07.452Z,98081.50
2022-12-08T03:24:53.971Z,98094.59
2022-12-08T03:27:39.688Z,98088.28
2022-12-08T03:30:25.357Z,98088.28
2022-12-08T03:33:19.152Z,98078.41
2022-12-08T03:36:08.283Z,98078.81
2022-12-08T03:38:54.723Z,98074.88
2022-12-08T03:41:40.010Z,98069.72
2022-12-08T03:44:25.444Z,98059.88
2022-12-08T03:47:10.683Z,98057.09
2022-12-08T03:49:55.966Z,98059.88
2022-12-08T03:52:41.209Z,98054.75
2022-12-08T03:55:26.414Z,98063.84
2022-12-08T03:58:11.663Z,98056.75
2022-12-08T04:00:56.896Z,98062.31
2022-12-08T04:03:42.454Z,98053.66
2022-12-08T04:06:27.912Z,98058.44
2022-12-08T04:09:13.495Z,98053.66
2022-12-08T04:11:58.782Z,98049.66
2022-12-08T04:14:44.155Z,98052.41
2022-12-08T04:17:29.521Z,98044.44
2022-12-08T04:20:14.709Z,98042.13
2022-12-08T04:23:00.078Z,98049.66
2022-12-08T04:25:45.976Z,98031.47
2022-12-08T04:28:31.910Z,98039.81
2022-12-08T04:31:17.242Z,98039.03
2022-12-08T04:34:02.359Z,98045.78
2022-12-08T04:36:47.512Z,98037.91
2022-12-08T04:39:32.885Z,98037.91
2022-12-08T04:42:18.111Z,98042.66
2022-12-08T04:53:20.772Z,98018.19
2022-12-08T04:56:11.346Z,98031.56
2022-12-08T04:58:55.908Z,98029.06
2022-12-08T05:01:40.399Z,98021.78
2022-12-08T05:04:25.474Z,98024.09
2022-12-08T05:07:10.287Z,98024.88
2022-12-08T05:09:55.248Z,98026.75
2022-12-08T05:17:46.109Z,98022.22
2022-12-08T05:20:30.855Z,98009.56
2022-12-08T05:23:15.606Z,98007.13
2022-12-08T05:26:01.047Z,98009.81
2022-12-08T05:28:46.443Z,98000.59
2022-12-08T05:31:32.492Z,98003.47
2022-12-08T05:34:18.123Z,98003.69
2022-12-08T05:37:03.578Z,97999.59
2022-12-08T05:39:48.812Z,98001.03
2022-12-08T05:42:34.130Z,97999.34
2022-12-08T05:45:19.250Z,97999.34
2022-12-08T05:48:04.969Z,98006.44
2022-12-08T05:50:51.851Z,97998.91
2022-12-08T05:53:37.489Z,98001.22
2022-12-08T05:56:23.461Z,98011.44
2022-12-08T05:59:10.534Z,98000.69
2022-12-08T06:01:55.835Z,97994.66
2022-12-08T06:04:41.453Z,98005.75
2022-12-08T06:07:26.965Z,97995.56
2022-12-08T06:10:12.609Z,97998.78
2022-12-08T06:12:58.172Z,98012.78
2022-12-08T06:15:43.568Z,98007.66
2022-12-08T06:18:32.687Z,98008.09
2022-12-08T06:21:19.198Z,98009.78
2022-12-08T06:24:04.811Z,98013.78
2022-12-08T06:26:50.465Z,98020.88
2022-12-08T06:29:35.651Z,98021.31
2022-12-08T06:32:27.114Z,98021.31
2022-12-08T06:35:13.300Z,98023.31
2022-12-08T06:37:58.892Z,98026.84
2022-12-08T06:40:44.154Z,98028.09
2022-12-08T06:43:29.391Z,98032.41
2022-12-08T06:46:17.025Z,98033.63
2022-12-08T06:49:02.466Z,98030.09
2022-12-08T06:51:47.653Z,98030.53
2022-12-08T06:54:32.810Z,98028.53
2022-12-08T06:57:18.674Z,98030.53
2022-12-08T07:00:07.963Z,98028.97
2022-12-08T07:02:53.730Z,98029.75
2022-12-08T07:05:39.639Z,98027.41
2022-12-08T07:08:25.190Z,98039.75
2022-12-08T07:11:14.153Z,98039.75
2022-12-08T07:14:01.837Z,98040.50
2022-12-08T07:16:47.216Z,98038.19
2022-12-08T07:19:33.099Z,98036.16
2022-12-08T07:22:18.612Z,98037.41
2022-12-08T07:25:04.152Z,98033.88
2022-12-08T07:27:51.617Z,98026.31
2022-12-08T07:30:37.912Z,98028.31
2022-12-08T07:33:23.212Z,98029.53
2022-12-08T07:36:09.061Z,98027.22
2022-12-08T07:38:54.524Z,98015.31
2022-12-08T07:41:39.910Z,98020.09
2022-12-08T07:44:25.289Z,98025.66
2022-12-08T07:47:10.465Z,98018.56
2022-12-08T07:49:55.876Z,98026.09
2022-12-08T07:52:41.195Z,98023.31
2022-12-08T07:55:26.850Z,98018.22
2022-12-08T07:58:12.341Z,98021.78
2022-12-08T08:00:57.643Z,98021.78
2022-12-08T08:03:43.383Z,98020.22
2022-12-08T08:06:28.870Z,98020.66
2022-12-08T08:09:14.088Z,98026.22
2022-12-08T08:12:28.857Z,98027.41
2022-12-08T08:15:10.234Z,98024.22
2022-12-08T08:17:55.497Z,98028.66
2022-12-08T08:20:41.287Z,98028.22
2022-12-08T08:23:27.404Z,98026.66
2022-12-08T08:26:13.772Z,98030.66
2022-12-08T08:28:59.461Z,98027.88
2022-12-08T08:31:44.802Z,98032.19
2022-12-08T08:34:30.218Z,98028.22
2022-12-08T08:37:15.567Z,98028.66
2022-12-08T08:40:01.609Z,98025.09
2022-12-08T08:42:47.544Z,98027.88
2022-12-08T08:45:33.860Z,98018.00
2022-12-08T08:48:19.141Z,98023.53
2022-12-08T08:51:09.899Z,98025.53
2022-12-08T08:53:55.516Z,98027.53
2022-12-08T08:56:40.650Z,98020.44
2022-12-08T08:59:26.927Z,98023.19
2022-12-08T09:02:18.344Z,98031.53
2022-12-08T09:05:06.368Z,98033.53
2022-12-08T09:07:51.578Z,98036.28
2022-12-08T09:10:37.265Z,98043.41
2022-12-08T09:13:22.789Z,98041.84
2022-12-08T09:16:10.999Z,98045.84
2022-12-08T09:18:56.435Z,98045.84
2022-12-08T09:21:41.661Z,98049.81
2022-12-08T09:24:27.001Z,98043.06
2022-12-08T09:27:12.219Z,98033.97
2022-12-08T09:29:57.500Z,98027.22
2022-12-08T09:32:42.863Z,98037.53
2022-12-08T09:35:29.254Z,98031.19
2022-12-08T09:38:15.060Z,98021.31
2022-12-08T09:41:04.179Z,98016.56
2022-12-08T09:44:15.016Z,98017.78
2022-12-08T09:47:03.578Z,98006.38
2022-12-08T09:49:58.543Z,98003.94
2022-12-08T09:53:08.964Z,98004.69
2022-12-08T09:55:59.054Z,98005.94
2022-12-08T09:58:57.126Z,98001.16
2022-12-08T10:01:43.101Z,98005.13
2022-12-08T10:04:37.430Z,97991.28
2022-12-08T10:07:37.813Z,97994.03
2022-12-08T10:10:47.457Z,97980.97
2022-12-08T10:13:54.241Z,97990.50
2022-12-08T10:16:44.573Z,97979.41
2022-12-08T10:19:32.585Z,97980.19
2022-12-08T10:22:25.157Z,97979.41
2022-12-08T10:25:19.467Z,97979.41
2022-12-08T10:28:04.877Z,97979.41
2022-12-08T10:30:50.319Z,97978.22
2022-12-08T10:33:35.663Z,97976.66
2022-12-08T10:36:20.884Z,97971.88
2022-12-08T10:39:29.212Z,97971.44
2022-12-08T10:42:14.515Z,97966.31
2022-12-08T10:45:09.036Z,97964.34
2022-12-08T10:47:57.445Z,97960.78
2022-12-08T10:50:53.014Z,97955.72
2022-12-08T10:53:46.877Z,97964.34
2022-12-08T10:56:33.286Z,97947.72
2022-12-08T10:59:19.354Z,97953.28
2022-12-08T11:02:19.427Z,97946.94
2022-12-08T11:05:04.860Z,97956.03
2022-12-08T11:07:53.785Z,97942.94
2022-12-08T11:10:44.800Z,97951.25
2022-12-08T11:13:30.598Z,97947.72
2022-12-08T11:16:17.620Z,97941.72
2022-12-08T11:19:08.234Z,97939.41
2022-12-08T11:21:54.438Z,97937.41
2022-12-08T11:24:39.594Z,97935.41
2022-12-08T11:27:24.956Z,97934.63
2022-12-08T11:30:18.886Z,97928.31
2022-12-08T11:33:19.459Z,97924.75
2022-12-08T11:36:09.742Z,97931.09
2022-12-08T11:38:59.621Z,97931.88
2022-12-08T11:41:46.540Z,97921.97
2022-12-08T11:44:42.379Z,97924.75
2022-12-08T11:47:55.826Z,97924.75
2022-12-08T11:50:47.179Z,97927.09
2022-12-08T11:53:52.112Z,97921.97
2022-12-08T11:56:42.352Z,97921.53
2022-12-08T11:59:32.347Z,97918.78
2022-12-08T12:02:24.330Z,97912.47
2022-12-08T12:05:23.589Z,97908.91
2022-12-08T12:08:30.587Z,97920.78
2022-12-08T12:12:07.080Z,97916.00
2022-12-08T12:15:36.770Z,97912.78
2022-12-08T12:18:31.538Z,97913.22
2022-12-08T12:21:22.722Z,97907.69
2022-12-08T12:24:26.103Z,97913.22
2022-12-08T12:27:13.583Z,97912.47
2022-12-08T12:30:02.879Z,97908.91
2022-12-08T12:32:55.176Z,97903.38
2022-12-08T12:35:47.960Z,97905.34
2022-12-08T12:38:55.980Z,97907.34
2022-12-08T12:41:52.562Z,97907.34
2022-12-08T12:44:39.819Z,97901.03
2022-12-08T12:47:56.248Z,97904.59
2022-12-08T12:50:46.154Z,97899.03
2022-12-08T12:53:37.455Z,97891.97
2022-12-08T12:57:17.932Z,97886.09
2022-12-08T13:00:03.285Z,97895.94
2022-12-08T13:02:50.858Z,97897.50
2022-12-08T13:05:49.832Z,97887.63
2022-12-08T13:08:35.667Z,97885.19
2022-12-08T13:11:22.397Z,97890.72
2022-12-08T13:14:26.990Z,97880.41
2022-12-08T13:17:17.029Z,97880.06
2022-12-08T13:20:06.734Z,97878.09
2022-12-08T13:23:01.805Z,97874.53
2022-12-08T13:25:48.727Z,97867.88
2022-12-08T13:28:34.057Z,97868.78
2022-12-08T13:31:43.886Z,97860.03
2022-12-08T13:35:00.126Z,97855.72
2022-12-08T13:37:54.803Z,97867.13
2022-12-08T13:40:42.427Z,97863.59
2022-12-08T13:44:50.323Z,97866.69
2022-12-08T13:47:32.065Z,97870.22
2022-12-08T13:57:06.797Z,97866.94
2022-12-08T13:59:50.513Z,97882.00
2022-12-08T14:02:45.341Z,97883.22
2022-12-08T14:06:11.107Z,97875.69
2022-12-08T14:09:06.961Z,97881.22
2022-12-08T14:12:03.457Z,97870.78
2022-12-08T14:15:04.731Z,97872.56
2022-12-08T14:17:56.038Z,97870.75
2022-12-08T14:21:18.966Z,97874.94
2022-12-08T14:23:47.408Z,97881.47
2022-12-08T14:26:35.665Z,97877.38
2022-12-08T14:29:33.202Z,97879.88
2022-12-08T14:32:26.852Z,97882.88
2022-12-08T14:35:20.735Z,97880.75
2022-12-08T14:38:13.751Z,97877.41
2022-12-08T14:41:03.469Z,97877.28
2022-12-08T14:43:58.987Z,97880.69
2022-12-08T14:47:05.794Z,97887.03
2022-12-08T14:49:53.041Z,97882.59
2022-12-08T14:52:44.974Z,97882.44
2022-12-08T14:55:38.802Z,97890.75
2022-12-08T14:58:31.061Z,97884.78
2022-12-08T15:01:22.491Z,97887.09
2022-12-08T15:04:27.609Z,97885.09
2022-12-08T15:07:22.059Z,97881.41
2022-12-08T15:10:24.779Z,97888.84
2022-12-08T15:13:16.446Z,97893.16
2022-12-08T15:16:02.859Z,97889.94
2022-12-08T15:19:05.346Z,97893.81
2022-12-08T15:21:56.437Z,97904.03
2022-12-08T15:24:41.913Z,97892.94
2022-12-08T15:27:28.573Z,97900.03
2022-12-08T15:30:17.383Z,97901.59
2022-12-08T15:33:03.771Z,97894.50
2022-12-08T15:35:50.819Z,97897.16
2022-12-08T15:38:37.185Z,97893.13
2022-12-08T15:41:22.663Z,97894.81
2022-12-08T15:44:08.184Z,97888.84
2022-12-08T15:46:54.161Z,97891.47
2022-12-08T15:49:39.649Z,97890.09
2022-12-08T15:52:25.531Z,97893.19
2022-12-08T15:55:15.507Z,97888.75
2022-12-08T16:01:07.098Z,97886.72
2022-12-08T16:04:27.884Z,97887.06
2022-12-08T16:07:20.437Z,97888.19
2022-12-08T16:11:34.156Z,97883.50
2022-12-08T16:14:23.225Z,97894.50
2022-12-08T16:16:58.277Z,97889.72
2022-12-08T16:19:44.917Z,97891.72
2022-12-08T16:26:09.048Z,97891.13
2022-12-08T16:28:53.914Z,97899.00
2022-12-08T16:31:40.094Z,97889.31
2022-12-08T16:34:25.337Z,97889.31
2022-12-08T16:37:22.550Z,97889.66
2022-12-08T16:40:08.695Z,97887.63
2022-12-08T16:42:54.351Z,97888.09
2022-12-08T16:45:45.019Z,97888.84
2022-12-08T16:48:31.118Z,97890.09
2022-12-08T16:51:23.420Z,97884.53
2022-12-08T16:54:12.055Z,97887.31
2022-12-08T16:56:57.649Z,97891.63
2022-12-08T16:59:43.075Z,97886.88
2022-12-08T17:02:28.362Z,97887.63
2022-12-08T17:05:15.528Z,97893.19
2022-12-08T17:08:00.793Z,97884.41
2022-12-08T17:11:06.158Z,97889.97
2022-12-08T17:13:51.658Z,97896.28
2022-12-08T17:16:37.122Z,97881.16
2022-12-08T17:19:22.352Z,97883.28
2022-12-08T17:22:08.682Z,97897.31
2022-12-08T17:24:54.124Z,97886.34
2022-12-08T17:27:40.099Z,97898.09
2022-12-08T17:30:26.988Z,97902.44
2022-12-08T17:33:12.620Z,97901.63
2022-12-08T17:35:57.879Z,97905.22
2022-12-08T17:38:43.863Z,97897.66
2022-12-08T17:41:29.665Z,97898.09
2022-12-08T17:44:19.390Z,97897.31
2022-12-08T17:47:05.057Z,97902.88
2022-12-08T17:49:50.669Z,97892.53
2022-12-08T17:52:36.213Z,97900.53
2022-12-08T17:55:21.764Z,97895.00
2022-12-08T17:58:08.669Z,97903.31
2022-12-08T18:00:54.418Z,97896.56
2022-12-08T18:03:40.146Z,97899.66
2022-12-08T18:06:29.646Z,97892.53
2022-12-08T18:09:16.444Z,97903.97
2022-12-08T18:12:02.671Z,97896.41
2022-12-08T18:14:48.570Z,97890.41
2022-12-08T18:17:34.513Z,97893.63
2022-12-08T18:20:20.567Z,97900.44
2022-12-08T18:23:06.386Z,97890.09
2022-12-08T18:25:52.086Z,97897.19
2022-12-08T18:28:38.598Z,97901.97
2022-12-08T18:31:24.311Z,97900.44
2022-12-08T18:34:09.731Z,97896.28
2022-12-08T18:36:55.050Z,97897.66
2022-12-08T18:39:40.463Z,97898.69
2022-12-08T18:42:28.484Z,97900.06
2022-12-08T18:45:17.886Z,97887.53
2022-12-08T18:48:06.759Z,97893.97
2022-12-08T18:50:52.467Z,97890.88
2022-12-08T18:53:39.817Z,97884.69
2022-12-08T18:56:28.365Z,97887.16
2022-12-08T18:59:13.981Z,97890.47
2022-12-08T19:02:00.195Z,97900.03
2022-12-08T19:04:46.141Z,97896.19
2022-12-08T19:07:31.347Z,97901.81
2022-12-08T19:10:16.843Z,97894.06
2022-12-08T19:13:02.360Z,97893.50
2022-12-08T19:15:48.007Z,97896.03
2022-12-08T19:18:33.554Z,97895.25
2022-12-08T19:21:19.773Z,97893.25
2022-12-08T19:24:05.813Z,97899.03
2022-12-08T19:26:51.274Z,97898.84
2022-12-08T19:29:37.219Z,97892.66
2022-12-08T19:32:22.732Z,97896.78
2022-12-08T19:35:11.205Z,97895.22
2022-12-08T19:37:57.387Z,97892.13
2022-12-08T19:41:02.762Z,97898.56
2022-12-08T19:44:06.984Z,97901.78
2022-12-08T19:46:52.481Z,97905.03
2022-12-08T19:49:38.806Z,97900.38
2022-12-08T19:52:24.115Z,97908.34
2022-12-08T19:55:09.708Z,97898.50
2022-12-08T19:57:56.861Z,97904.03
2022-12-08T20:00:43.403Z,97902.94
2022-12-08T20:03:28.804Z,97908.94
2022-12-08T20:06:18.420Z,97907.84
2022-12-08T20:09:03.777Z,97912.63
2022-12-08T20:11:50.777Z,97904.72
2022-12-08T20:14:35.934Z,97909.50
2022-12-08T20:17:21.236Z,97912.28
2022-12-08T20:20:08.028Z,97917.50
2022-12-08T20:22:53.306Z,97913.16
2022-12-08T20:25:40.363Z,97913.16
2022-12-08T20:28:26.322Z,97914.41
2022-12-08T20:31:23.766Z,97915.63
2022-12-08T20:34:16.407Z,97913.63
2022-12-08T20:37:02.629Z,97917.59
2022-12-08T20:39:48.285Z,97917.59
2022-12-08T20:42:34.400Z,97918.06
2022-12-08T20:45:20.266Z,97916.84
2022-12-08T20:48:08.208Z,97928.69
2022-12-08T20:51:03.940Z,97934.72
2022-12-08T20:53:50.234Z,97924.06
2022-12-08T20:56:36.811Z,97923.28
2022-12-08T20:59:26.357Z,97930.81
2022-12-08T21:02:12.554Z,97932.81
2022-12-08T21:04:58.561Z,97928.50
2022-12-08T21:07:45.141Z,97937.25
2022-12-08T21:10:31.453Z,97926.16
2022-12-08T21:13:19.732Z,97921.06
2022-12-08T21:16:06.639Z,97916.75
2022-12-08T21:18:52.654Z,97920.44
2022-12-08T21:21:39.074Z,97927.50
2022-12-08T21:24:28.981Z,97931.53
2022-12-08T21:27:19.284Z,97933.97
2022-12-08T21:30:08.052Z,97927.19
2022-12-08T21:32:53.709Z,97930.63
2022-12-08T21:35:39.747Z,97933.59
2022-12-08T21:38:26.221Z,97942.56
2022-12-08T21:41:16.319Z,97933.38
2022-12-08T21:44:01.877Z,97936.00
2022-12-08T21:46:47.486Z,97937.91
2022-12-08T21:49:33.120Z,97939.44
2022-12-08T21:52:18.770Z,97931.44
2022-12-08T21:55:05.381Z,97936.56
2022-12-08T21:57:50.812Z,97932.88
2022-12-08T22:00:36.200Z,97939.53
2022-12-08T22:03:22.029Z,97933.09
2022-12-08T22:06:11.502Z,97933.41
2022-12-08T22:08:57.743Z,97928.00
2022-12-08T22:11:44.180Z,97929.66
2022-12-08T22:14:29.821Z,97936.09
2022-12-08T22:17:16.180Z,97931.44
2022-12-08T22:20:01.564Z,97935.47
2022-12-08T22:22:47.401Z,97939.44
2022-12-08T22:25:32.975Z,97941.88
2022-12-08T22:28:18.943Z,97935.56
2022-12-08T22:31:09.650Z,97940.00
2022-12-08T22:33:55.114Z,97944.00
2022-12-08T22:36:42.616Z,97945.22
2022-12-08T22:39:28.373Z,97938.59
2022-12-08T22:42:15.152Z,97933.47
2022-12-08T22:45:00.470Z,97934.72
2022-12-08T22:47:46.192Z,97934.72
2022-12-08T22:50:31.949Z,97937.50
2022-12-08T22:53:17.530Z,97939.94
2022-12-08T22:56:11.029Z,97938.38
2022-12-08T22:58:57.032Z,97934.06
2022-12-08T23:01:42.866Z,97939.59
2022-12-08T23:04:28.545Z,97940.81
2022-12-08T23:07:14.542Z,97939.25
2022-12-08T23:10:00.324Z,97943.25
2022-12-08T23:12:46.024Z,97938.50
2022-12-08T23:15:31.652Z,97940.13
2022-12-08T23:18:21.209Z,97945.69
2022-12-08T23:21:09.578Z,97942.59
2022-12-08T23:23:55.188Z,97943.81
2022-12-08T23:26:40.619Z,97945.81
2022-12-08T23:29:26.353Z,97942.28
2022-12-08T23:32:11.781Z,97943.47
2022-12-08T23:34:57.291Z,97944.25
2022-12-08T23:37:42.822Z,97937.16
2022-12-08T23:40:28.459Z,97938.41
2022-12-08T23:43:13.805Z,97930.84
2022-12-08T23:45:59.244Z,97936.84
2022-12-08T23:48:45.113Z,97938.06
2022-12-08T23:51:30.781Z,97936.50
2022-12-08T23:54:16.882Z,97935.75
2022-12-08T23:57:02.156Z,97936.50
2022-12-08T23:59:47.706Z,97935.75
